Rickenbacker International Airport Columbus US
ICAO: KLCK
IATA: LCK
Category: Large
Scheduled Services: No

Elevation: 744 ft
TransAlt. 18000 ft.

Airport Communications:
COLUMBUS APP:119.15
AWOS 3:132.75
COLUMBUS DEP:123.8
GND:121.85
ARNG OPS:36.7
COMD POST:23.88
RICK TWR:120.05
UNICOM:122.95

KLCK Zoom In..

Runways:

(A) RW 05L length 11902 ft width 150 ft
ILS 110.55 / hdg 52

(B) RW 05R length 12102 ft width 200 ft
ILS 110.10 / hdg 52

(C) RW 23L length 12102 ft width 200 ft
ILS 110.10 / hdg 232

(D) RW 23R length 11902 ft width 150 ft
---- / hdg 232

Location; KLCK
Day. 23 / Time. 15.15 Zulu
* Altimeter: 29.76
* Temperature: 03° c. 37.4°f.
* Wind from: 240° Speed 15 kn with Gusts up to 24 kn.
Dewpoint: 01° c.
Visibility: 10 Statute Miles.
Clouds: Scattered 1600 ft.
Clouds: Broken 2500 ft.
Clouds: Overcast 3300 ft.
Conditions: Slight Drizzle.

KLCK 231515Z AUTO 24015G24KT 10SM -DZ SCT016 BKN025 OVC033 03/01 A2976 RMK AO2 T00290012


Wind From 240°
Speed 15 kn.

YouTube Music Video
 
jpsmedia.com for Web Design  worldairports.se 2018   terms of use